Tiempo atmosférico en la estación meteorológica de Cieza, Murcia (265 m.)



Fecha
DESCASC
Temp. máxima en grados centígrados (hora)
DESCASC
Temp. mínima en grados centígrados (hora)
DESCASC
Temp. media en grados centígrados
DESCASC
Racha de viento máxima en m/sg (hora)
DESCASC
Velocidad máxima media en intervalos de 10 minutos(hora)
DESCASC
Precipitaciones diarias en mm
DESCASC
Precipitaciones de 00:00 a 06:00 en mm
DESCASC
Precipitaciones de 06:00 a 12:00 en mm
DESCASC
Precipitaciones de 12:00 a 18:00 en mm
DESCASC
Precipitaciones de 18:00 a 24:00 en mm
DESCASC
28-02-2021 15.1 (15:20) 7.8 (00:00) 11.5 8.89 (13:40) 5.56 (13:50) 0 0 0 0 0
27-02-2021 17.2 (14:50) 5.3 (07:40) 11.3 6.11 (17:40) 3.89 (18:30) 0 0 0 0 0
26-02-2021 16.6 (15:40) 8.5 (07:20) 12.6 6.67 (18:40) 4.44 (18:30) 0 0 0 0 0
25-02-2021 17.1 (15:50) 7.9 (00:00) 12.5 8.33 (17:30) 5.56 (17:50) 0 0 0 0 0
24-02-2021 18.7 (15:30) 7.8 (00:00) 13.3 8.89 (17:30) 5.83 (16:40) 0 0 0 0 0
23-02-2021 17.7 (15:20) 8.2 (00:00) 13 5 (19:50) 3.61 (19:50) 0 0 0 0 0
22-02-2021 15.4 (15:50) 6.9 (00:00) 11.1 10.56 (10:40) 6.11 (13:00) 0 0 0 0 0
21-02-2021 16.6 (16:40) 8.2 (00:00) 12.4 6.11 (12:00) 3.89 (14:00) 0 0 0 0 0
20-02-2021 16.7 (16:10) 6.1 (00:00) 11.4 10.28 (17:20) 6.94 (17:00) 0 0 0 0 0
19-02-2021 21 (15:00) 4.3 (00:00) 12.7 9.44 (16:50) 5.83 (16:50) 0 0 0 0 0
18-02-2021 22.7 (16:00) 3 (00:00) 12.9 6.11 (10:40) 4.44 (10:40) 0 0 0 0 0
17-02-2021 21.8 (14:30) 4.8 (00:00) 13.3 8.89 (16:20) 5.83 (16:00) 0 0 0 0 0
16-02-2021 19.4 (17:00) 3.9 (00:00) 11.6 4.17 (00:30) 3.06 (11:00) 0 0 0 0 0
15-02-2021 15.8 (12:50) 9 (00:00) 12.4 7.78 (13:50) 5.28 (19:50) 0 0 0 0 0
14-02-2021 18.5 (14:10) 6.9 (00:00) 12.7 9.72 (16:10) 6.39 (16:30) 0 0 0 0 0
13-02-2021 21.7 (16:50) 10.4 (00:00) 16.1 9.17 (04:50) 5.56 (04:50) 0 0 0 0 0
12-02-2021 22.1 (15:30) 11.9 (00:00) 17 14.44 (13:10) 7.5 (14:20) 0 0 0 0 0
11-02-2021 23.8 (16:30) 7.1 (00:00) 15.4 5.28 (00:20) 3.33 (00:20) 0 0 0 0 0
10-02-2021 21.1 (15:20) 8.5 (00:00) 14.8 12.22 (16:40) 7.22 (17:00) 0.2 0.1 0.1 0 0
09-02-2021 17.2 (19:30) 5.3 (00:00) 11.3 8.06 (22:50) 4.44 (21:30) 0.5 0 0 0 0.5
08-02-2021 18 (14:10) 7.6 (00:00) 12.8 13.61 (17:10) 8.33 (17:10) 0 0 0 0 0
07-02-2021 17.5 (15:40) 4.5 (00:00) 11 11.94 (15:50) 7.22 (16:00) 0 0 0 0 0
06-02-2021 19.4 (15:00) 6.2 (00:00) 12.8 6.67 (16:40) 3.61 (03:50) 0 0 0 0 0
05-02-2021 17.9 (15:20) 8.8 (00:00) 13.3 7.78 (17:30) 5.56 (17:30) 0 0 0 0 0
04-02-2021 19.2 (14:50) 6.9 (00:00) 13.1 9.17 (13:50) 5.83 (13:50) 0 0 0 0 0
03-02-2021 19.9 (16:00) 7.4 (00:00) 13.6 6.39 (12:40) 4.72 (12:40) 0 0 0 0 0

Gráficas

Temp. máximas Temp. mínimas Temp. medias Precipitaciones Rachas de viento máximas Velocidades máximas media en intervalos de 10 minutos

Datos horarios

Fecha y hora oficial Temperatura (ºC) Velocidad del viento (km/h) Dirección del viento Racha (km/h) Dirección de racha Precipitación (mm) Presión (hPa) Tendencia (hPa) Humedad (%)
2021-03-04 23:00:00 11.5 10 Sudeste 17 Sudeste 0 -- -- 84
2021-03-04 22:00:00 11.8 12 Sudeste 24 Sudeste 0 -- -- 80
2021-03-04 21:00:00 11.7 15 Sudeste 27 Sudeste 0 -- -- 78
2021-03-04 20:00:00 12.4 13 Sudeste 25 Sudeste 0 -- -- 65
2021-03-04 19:00:00 13.3 16 Sudeste 24 Sudeste 0 -- -- 62
2021-03-04 18:00:00 14.9 15 Sudeste 25 Sudeste 0 -- -- 54
2021-03-04 17:00:00 15.1 14 Sudeste 23 Sudeste 0 -- -- 53
2021-03-04 16:00:00 15.4 15 Sudeste 23 Sudeste 0 -- -- 52
2021-03-04 15:00:00 16.2 2 Sur 13 Noroeste 0 -- -- 49
2021-03-04 14:00:00 15.9 5 Sudoeste 15 Noroeste 0 -- -- 52
2021-03-04 13:00:00 17.6 4 Nordeste 11 Nordeste 0 -- -- 51
2021-03-04 12:00:00 13.5 4 Noroeste 14 Oeste 0 -- -- 69
2021-03-04 11:00:00 11.2 10 Oeste 15 Oeste 0 -- -- 79
2021-03-04 10:00:00 9 8 Oeste 13 Oeste 0 -- -- 86
2021-03-04 09:00:00 8.7 7 Oeste 11 Oeste 0 -- -- 87
2021-03-04 08:00:00 8.4 9 Oeste 12 Oeste 0 -- -- 89
2021-03-04 07:00:00 8.5 6 Oeste 9 Oeste 0 -- -- 88
2021-03-04 06:00:00 8.6 5 Oeste 7 Oeste 0 -- -- 87
2021-03-04 05:00:00 8.8 0 Calma -- -- 0 -- -- 86
2021-03-04 04:00:00 9.7 0 Calma 8 Oeste 0 -- -- 82
2021-03-04 03:00:00 10.2 0 Calma 11 Oeste 0 -- -- 81
2021-03-04 02:00:00 10.4 4 Oeste 12 Oeste 0 -- -- 81
2021-03-04 01:00:00 9.9 5 Oeste 9 Oeste 0 -- -- 82
2021-03-04 00:00:00 10.5 2 Oeste 5 Oeste 0 -- -- 81
2021-03-03 23:00:00 10.3 0 Calma 0 Calma 0 -- -- 80
2021-03-03 22:00:00 9.3 0 Calma 6 Nordeste 0 -- -- 78
2021-03-03 21:00:00 11.4 0 Calma 6 Nordeste 0 -- -- 74
2021-03-03 20:00:00 12.7 0 Calma 15 Sudeste 0 -- -- 70
2021-03-03 19:00:00 14.1 7 Sudeste 26 Este 0 -- -- 67
2021-03-03 18:00:00 15.3 17 Sudeste 24 Sudeste 0 -- -- 66
2021-03-03 17:00:00 16.7 6 Este 18 Sudeste 0 -- -- 61
2021-03-03 16:00:00 16.8 11 Sudeste 19 Sudeste 0 -- -- 62
2021-03-03 15:00:00 17.5 8 Sudeste 19 Este 0 -- -- 59
2021-03-03 14:00:00 17.1 4 Sudeste 10 Este 0 -- -- 61
2021-03-03 13:00:00 16.4 0 Calma 7 Nordeste 0 -- -- 63
2021-03-03 12:00:00 15.3 4 Oeste 8 Noroeste 0 -- -- 67
2021-03-03 11:00:00 14.8 3 Oeste 11 Oeste 0 -- -- 72
2021-03-03 10:00:00 13.2 8 Oeste 11 Noroeste 0 -- -- 79
2021-03-03 09:00:00 12 0 Calma 8 Oeste 0 -- -- 82
2021-03-03 08:00:00 11.2 0 Calma 15 Oeste 0 -- -- 84
2021-03-03 07:00:00 11.3 6 Oeste 16 Oeste 0 -- -- 85
2021-03-03 06:00:00 10.9 4 Noroeste 17 Oeste 0 -- -- 85
2021-03-03 05:00:00 11.3 11 Oeste 14 Oeste 0 -- -- 85
2021-03-03 04:00:00 11.5 8 Noroeste 14 Oeste 0 -- -- 84
2021-03-03 03:00:00 11.7 3 Noroeste 15 Oeste 0 -- -- 84
2021-03-03 02:00:00 11.9 10 Oeste 17 Oeste 0 -- -- 81
2021-03-03 01:00:00 13 10 Norte 17 Nordeste 0 -- -- 76
2021-03-03 00:00:00 12.6 4 Oeste 13 Norte 0 -- -- 76
2021-03-02 23:00:00 13.1 3 Norte 17 Nordeste 0 -- -- 76
2021-03-02 22:00:00 13.6 0 Calma 17 Nordeste 0 -- -- 76
2021-03-02 21:00:00 14 4 Noroeste 14 Norte 0 -- -- 69
2021-03-02 20:00:00 14.7 2 Oeste 15 Norte 0 -- -- 67
2021-03-02 19:00:00 15 9 Oeste 16 Norte 0 -- -- 64
2021-03-02 18:00:00 15.8 11 Nordeste 21 Nordeste 0 -- -- 62
2021-03-02 17:00:00 16.4 13 Nordeste 21 Nordeste 0 -- -- 61
2021-03-02 16:00:00 17.6 5 Norte 12 Noroeste 0 -- -- 57
2021-03-02 15:00:00 17.4 2 Noroeste 12 Norte 0 -- -- 58
2021-03-02 14:00:00 17.2 5 Noroeste 15 Norte 0 -- -- 58
2021-03-02 13:00:00 16.4 8 Norte 14 Norte 0 -- -- 62
2021-03-02 12:00:00 15 7 Oeste 13 Noroeste 0 -- -- 69
2021-03-02 11:00:00 13.5 4 Noroeste 13 Oeste 0 -- -- 75
2021-03-02 10:00:00 11.8 9 Oeste 18 Oeste 0 -- -- 81
2021-03-02 09:00:00 10.5 7 Oeste 13 Oeste 0 -- -- 85
2021-03-02 08:00:00 9.7 6 Oeste 14 Oeste 0 -- -- 87
2021-03-02 07:00:00 9.3 9 Oeste 12 Oeste 0 -- -- 88
2021-03-02 06:00:00 9.3 6 Oeste 12 Oeste 0 -- -- 87
2021-03-02 05:00:00 9.7 9 Oeste 13 Oeste 0 -- -- 85
2021-03-02 04:00:00 10 8 Oeste 11 Oeste 0 -- -- 84
2021-03-02 03:00:00 10 6 Oeste 12 Oeste 0 -- -- 84
2021-03-02 02:00:00 10 5 Oeste 14 Oeste 0 -- -- 81
2021-03-02 01:00:00 10.7 6 Noroeste 13 Noroeste 0 -- -- 79
2021-03-02 00:00:00 11.2 3 Noroeste 11 Oeste 0 -- -- 76
2021-03-01 23:00:00 11.1 2 Noroeste 14 Nordeste 0 -- -- 75
2021-03-01 22:00:00 11.4 5 Norte 22 Nordeste 0 -- -- 74
2021-03-01 21:00:00 11.9 10 Nordeste 24 Nordeste 0 -- -- 73
2021-03-01 20:00:00 12.3 14 Nordeste 24 Nordeste 0 -- -- 70
2021-03-01 19:00:00 13.1 12 Nordeste 19 Norte 0 -- -- 69
2021-03-01 18:00:00 14 0 Calma 10 Oeste 0 -- -- 69
2021-03-01 17:00:00 13.9 8 Oeste 16 Oeste 0 -- -- 69
2021-03-01 16:00:00 14.6 12 Oeste 16 Oeste 0 -- -- 66
2021-03-01 15:00:00 15 8 Oeste 14 Oeste 0 -- -- 64
2021-03-01 14:00:00 13 8 Oeste 12 Oeste 0 -- -- 72
2021-03-01 13:00:00 12.5 6 Oeste 11 Noroeste 0 -- -- 75
2021-03-01 12:00:00 11.6 7 Oeste 14 Oeste 0 -- -- 81
2021-03-01 11:00:00 11 6 Oeste 12 Noroeste 0 -- -- 84
2021-03-01 10:00:00 10.7 5 Noroeste 9 Oeste 0 -- -- 85
2021-03-01 09:00:00 10.5 0 Calma 4 Este 0 -- -- 84
2021-03-01 08:00:00 10.1 0 Calma 6 Oeste 0 -- -- 86
2021-03-01 07:00:00 10 4 Oeste 11 Oeste 0 -- -- 86
2021-03-01 06:00:00 10.1 7 Oeste 13 Oeste 0 -- -- 84
2021-03-01 05:00:00 10.2 3 Oeste 11 Oeste 0 -- -- 83
2021-03-01 04:00:00 10.3 3 Noroeste 11 Oeste 0 -- -- 84
2021-03-01 03:00:00 10.3 10 Oeste 17 Oeste 0.1 -- -- 81
2021-03-01 02:00:00 10.9 0 Calma 4 Oeste 0 -- -- 75
2021-03-01 01:00:00 11.2 0 Calma 8 Norte 0 -- -- 74
2021-03-01 00:00:00 11.5 2 Oeste 8 Sudoeste 0 -- -- 74
2021-02-28 23:00:00 11.5 0 Calma 13 Norte 0 -- -- 72
2021-02-28 22:00:00 11.6 9 Sudeste 18 Sudeste 0 -- -- 79
2021-02-28 21:00:00 12.1 12 Sudeste 19 Sudeste 0 -- -- 74
2021-02-28 20:00:00 12.2 12 Sudeste 21 Sudeste 0 -- -- 73
2021-02-28 19:00:00 12.4 15 Sudeste 29 Sudeste 0 -- -- 68
2021-02-28 18:00:00 13.8 19 Sudeste 29 Sudeste 0 -- -- 63
2021-02-28 17:00:00 14.2 18 Sudeste 30 Este 0 -- -- 62
2021-02-28 16:00:00 14.7 17 Sudeste 28 Sudeste 0 -- -- 58
2021-02-28 15:00:00 14.6 18 Sudeste 32 Sudeste 0 -- -- 57
2021-02-28 14:00:00 13.6 17 Sudeste 32 Sudeste 0 -- -- 62
2021-02-28 13:00:00 13.6 16 Sudeste 27 Sudeste 0 -- -- 61
2021-02-28 12:00:00 13.1 18 Sudeste 27 Sudeste 0 -- -- 64
2021-02-28 11:00:00 11.8 5 Oeste 10 Noroeste 0 -- -- 73
2021-02-28 10:00:00 10.6 5 Oeste 9 Oeste 0 -- -- 78
2021-02-28 09:00:00 10.1 5 Oeste 8 Noroeste 0 -- -- 80
2021-02-28 08:00:00 9.3 0 Calma 11 Oeste 0 -- -- 84
2021-02-28 07:00:00 9.2 6 Oeste 12 Oeste 0 -- -- 84
2021-02-28 06:00:00 9.2 8 Oeste 12 Oeste 0 -- -- 84
2021-02-28 05:00:00 9.2 5 Oeste 12 Oeste 0 -- -- 85
2021-02-28 04:00:00 9.1 8 Oeste 13 Oeste 0 -- -- 85
2021-02-28 03:00:00 9 2 Noroeste 10 Oeste 0 -- -- 85
2021-02-28 02:00:00 8.9 2 Noroeste 6 Noroeste 0 -- -- 84
2021-02-28 01:00:00 8.2 0 Calma 6 Sudeste 0 -- -- 86
2021-02-28 00:00:00 7.8 0 Calma 6 Nordeste 0 -- -- 88
2021-02-27 23:00:00 7.7 0 Calma 10 Sudeste 0 -- -- 88
2021-02-27 22:00:00 9.5 7 Sudeste 16 Sudeste 0 -- -- 85
2021-02-27 21:00:00 10.2 11 Sudeste 16 Sudeste 0 -- -- 76
2021-02-27 20:00:00 11.2 13 Sudeste 22 Sudeste 0 -- -- 69
2021-02-27 19:00:00 12.6 14 Sudeste 22 Sudeste 0 -- -- 61
2021-02-27 18:00:00 14.1 14 Sudeste 22 Sudeste 0 -- -- 54
2021-02-27 17:00:00 15.7 10 Sudeste 19 Sudeste 0 -- -- 50
2021-02-27 16:00:00 16.9 10 Sur 19 Sur 0 -- -- 49
2021-02-27 15:00:00 16.7 8 Sudeste 15 Este 0 -- -- 47
2021-02-27 14:00:00 16.7 6 Este 14 Este 0 -- -- 49
2021-02-27 13:00:00 14.8 4 Sudeste 14 Sudeste 0 -- -- 53
2021-02-27 12:00:00 13 5 Oeste 13 Oeste 0 -- -- 61
2021-02-27 11:00:00 10.6 6 Oeste 12 Noroeste 0 -- -- 72
2021-02-27 10:00:00 8.2 6 Oeste 11 Noroeste 0 -- -- 82
2021-02-27 09:00:00 6.4 5 Oeste 8 Oeste 0 -- -- 87
2021-02-27 08:00:00 5.7 6 Oeste 9 Oeste 0 -- -- 89
2021-02-27 07:00:00 5.5 5 Oeste 8 Oeste 0 -- -- 88
2021-02-27 06:00:00 6.4 5 Oeste 9 Oeste 0 -- -- 86
2021-02-27 05:00:00 7.9 4 Oeste 8 Oeste 0 -- -- 81
2021-02-27 04:00:00 9.2 0 Calma 11 Oeste 0 -- -- 80
2021-02-27 03:00:00 9.6 6 Noroeste 9 Noroeste 0 -- -- 80
2021-02-27 02:00:00 10.2 0 Calma 8 Nordeste 0 -- -- 78
2021-02-27 01:00:00 10.6 2 Nordeste 8 Nordeste 0 -- -- 76
2021-02-27 00:00:00 11.3 0 Calma 9 Sudeste 0 -- -- 80
2021-02-26 23:00:00 11.4 0 Calma 11 Sudeste 0 -- -- 80
2021-02-26 22:00:00 11.4 8 Sudeste 13 Sudeste 0 -- -- 76
2021-02-26 21:00:00 11.6 6 Sudeste 11 Sudeste 0 -- -- 78
2021-02-26 20:00:00 11.5 6 Sudeste 18 Sudeste 0 -- -- 78
2021-02-26 19:00:00 12.1 13 Sudeste 24 Sudeste 0 -- -- 75
2021-02-26 18:00:00 13.7 13 Sudeste 23 Sudeste 0 -- -- 67
2021-02-26 17:00:00 15.6 10 Sudeste 17 Sudeste 0 -- -- 56
2021-02-26 16:00:00 16.2 3 Sudeste 13 Sur 0 -- -- 53
2021-02-26 15:00:00 16.2 2 Sudoeste 11 Sur 0 -- -- 55
2021-02-26 14:00:00 15.8 6 Sur 12 Sudoeste 0 -- -- 56
2021-02-26 13:00:00 14.7 3 Sudoeste 10 Oeste 0 -- -- 62
2021-02-26 12:00:00 13.7 4 Oeste 9 Oeste 0 -- -- 68
2021-02-26 11:00:00 12.1 4 Oeste 9 Oeste 0 -- -- 76
2021-02-26 10:00:00 10.8 6 Oeste 8 Oeste 0 -- -- 82
2021-02-26 09:00:00 10.4 2 Nordeste 8 Nordeste 0 -- -- 82
2021-02-26 08:00:00 9.6 0 Calma 8 Norte 0 -- -- 87
2021-02-26 07:00:00 8.7 0 Calma -- -- 0 -- -- 88
2021-02-26 06:00:00 9.4 0 Calma 2 Noroeste 0 -- -- 86
2021-02-26 05:00:00 10.5 0 Calma 6 Sudeste 0 -- -- 84
2021-02-26 04:00:00 10.8 4 Sudeste 6 Sur 0 -- -- 81
2021-02-26 03:00:00 11.7 4 Sur 8 Sudeste 0 -- -- 80
2021-02-26 02:00:00 12.1 0 Calma 9 Sudeste 0 -- -- 81
2021-02-26 01:00:00 12.2 7 Sudeste 19 Sudeste 0 -- -- 81
2021-02-26 00:00:00 12.3 10 Sudeste 18 Sudeste 0 -- -- 83
2021-02-25 23:00:00 12.4 9 Sudeste 17 Sudeste 0 -- -- 82
2021-02-25 22:00:00 12.5 11 Sudeste 19 Sudeste 0 -- -- 81
2021-02-25 21:00:00 12.7 11 Sudeste 21 Sudeste 0 -- -- 78
2021-02-25 20:00:00 12.7 14 Sudeste 24 Sudeste 0 -- -- 78
2021-02-25 19:00:00 13.1 15 Sudeste 27 Sudeste 0 -- -- 74
2021-02-25 18:00:00 14.1 16 Sudeste 30 Sudeste 0 -- -- 68
2021-02-25 17:00:00 15.8 16 Sudeste 26 Sudeste 0 -- -- 63
2021-02-25 16:00:00 16.3 14 Sudeste 24 Sudeste 0 -- -- 61
2021-02-25 15:00:00 16.1 10 Sudeste 18 Sudeste 0 -- -- 61
2021-02-25 14:00:00 15.2 10 Sudeste 19 Sudeste 0 -- -- 63
2021-02-25 13:00:00 14.9 12 Sudeste 21 Sudeste 0 -- -- 66
2021-02-25 12:00:00 13.9 10 Sudeste 15 Sudeste 0 -- -- 71
2021-02-25 11:00:00 12.8 3 Este 6 Este 0 -- -- 75
2021-02-25 10:00:00 11.8 0 Calma 6 Noroeste 0 -- -- 80
2021-02-25 09:00:00 10.2 3 Oeste 7 Oeste 0 -- -- 85
2021-02-25 08:00:00 9.6 5 Oeste 8 Oeste 0 -- -- 86
2021-02-25 07:00:00 9.7 0 Calma -- -- 0 -- -- 85
2021-02-25 06:00:00 9.3 0 Calma 4 Oeste 0 -- -- 86
2021-02-25 05:00:00 9.1 0 Calma 5 Norte 0 -- -- 86
2021-02-25 04:00:00 9 0 Calma 5 Este 0 -- -- 85
2021-02-25 03:00:00 9.1 0 Calma 4 Este 0 -- -- 86
2021-02-25 02:00:00 9.2 0 Calma 3 Sudeste 0 -- -- 86
2021-02-25 01:00:00 8.5 0 Calma 4 Este 0 -- -- 88
2021-02-25 00:00:00 8.3 0 Calma 8 Este 0 -- -- 87
2021-02-24 23:00:00 10.8 3 Este 16 Sudeste 0 -- -- 84
2021-02-24 22:00:00 11.6 8 Sudeste 18 Sur 0 -- -- 79
2021-02-24 21:00:00 12.4 14 Sudeste 21 Sudeste 0 -- -- 74
2021-02-24 20:00:00 12.6 18 Sudeste 27 Sudeste 0 -- -- 73
2021-02-24 19:00:00 13.3 18 Sudeste 30 Sudeste 0 -- -- 69
2021-02-24 18:00:00 15 16 Sudeste 32 Sudeste 0 -- -- 61
2021-02-24 17:00:00 16.7 20 Sudeste 31 Sudeste 0 -- -- 55
2021-02-24 16:00:00 18.2 14 Sudeste 27 Sudeste 0 -- -- 50
2021-02-24 15:00:00 17.7 3 Sudeste 15 Sudeste 0 -- -- 52
2021-02-24 14:00:00 16.5 3 Noroeste 12 Oeste 0 -- -- 58
2021-02-24 13:00:00 14.9 8 Oeste 15 Oeste 0 -- -- 62
2021-02-24 12:00:00 13.2 10 Oeste 15 Oeste 0 -- -- 67
2021-02-24 11:00:00 11.3 8 Oeste 12 Oeste 0 -- -- 71
2021-02-24 10:00:00 10 7 Oeste 14 Noroeste 0 -- -- 76
2021-02-24 09:00:00 9.5 10 Oeste 14 Oeste 0 -- -- 79
2021-02-24 08:00:00 9.1 6 Oeste 11 Oeste 0 -- -- 78
2021-02-24 07:00:00 8.9 6 Oeste 12 Oeste 0 -- -- 78
2021-02-24 06:00:00 9 7 Oeste 11 Oeste 0 -- -- 77
2021-02-24 05:00:00 8.7 4 Noroeste 11 Oeste 0 -- -- 79
2021-02-24 04:00:00 8.6 3 Noroeste 11 Oeste 0 -- -- 82
2021-02-24 03:00:00 7.9 7 Oeste 12 Oeste 0 -- -- 86
2021-02-24 02:00:00 9 8 Oeste 10 Oeste 0 -- -- 84
2021-02-24 01:00:00 9.9 4 Noroeste 10 Norte 0 -- -- 80
2021-02-24 00:00:00 10.9 6 Norte 13 Norte 0 -- -- 70
2021-02-23 23:00:00 11.1 0 Calma 4 Este 0 -- -- 84
2021-02-23 22:00:00 11.3 0 Calma 14 Sudeste 0 -- -- 80
2021-02-23 21:00:00 12.1 9 Sudeste 17 Sudeste 0 -- -- 79
2021-02-23 20:00:00 13 10 Sudeste 18 Sudeste 0 -- -- 65
2021-02-23 19:00:00 14.7 8 Sudeste 14 Sudeste 0 -- -- 52
2021-02-23 18:00:00 16.5 0 Calma 8 Sudeste 0 -- -- 46
2021-02-23 17:00:00 17 4 Norte 12 Norte 0 -- -- 45
2021-02-23 16:00:00 17 4 Nordeste 13 Nordeste 0 -- -- 44
2021-02-23 15:00:00 17.1 0 Calma 12 Norte 0 -- -- 44
2021-02-23 14:00:00 16.3 4 Nordeste 15 Nordeste 0 -- -- 46
2021-02-23 13:00:00 16.3 5 Nordeste 14 Nordeste 0 -- -- 47
2021-02-23 12:00:00 16.1 3 Este 18 Norte 0 -- -- 50
2021-02-23 11:00:00 14.5 9 Norte 18 Norte 0 -- -- 57
2021-02-23 10:00:00 12.2 8 Norte 16 Norte 0 -- -- 67
2021-02-23 09:00:00 9.9 10 Oeste 17 Oeste 0 -- -- 71
2021-02-23 08:00:00 8.5 8 Oeste 14 Oeste 0 -- -- 74
2021-02-23 07:00:00 8.3 9 Oeste 15 Noroeste 0 -- -- 73
2021-02-23 06:00:00 9 8 Oeste 13 Oeste 0 -- -- 69
2021-02-23 05:00:00 9.3 6 Oeste 12 Oeste 0 -- -- 67
2021-02-23 04:00:00 9.5 6 Oeste 9 Oeste 0 -- -- 64
2021-02-23 03:00:00 10.5 2 Noroeste 18 Norte 0 -- -- 60
2021-02-23 02:00:00 10.6 9 Norte 16 Norte 0 -- -- 59
2021-02-23 01:00:00 10.3 4 Oeste 10 Noroeste 0 -- -- 57
2021-02-23 00:00:00 11.3 4 Noroeste 11 Oeste 0 -- -- 53
2021-02-22 23:00:00 11.5 5 Noroeste 11 Noroeste 0 -- -- 52
2021-02-22 22:00:00 12 5 Noroeste 13 Oeste 0 -- -- 51
2021-02-22 21:00:00 12.4 9 Noroeste 21 Noroeste 0 -- -- 48
2021-02-22 20:00:00 12.4 8 Noroeste 18 Noroeste 0 -- -- 48
2021-02-22 19:00:00 12.7 7 Noroeste 25 Noroeste 0 -- -- 45
2021-02-22 18:00:00 13.5 9 Noroeste 26 Noroeste 0 -- -- 42
2021-02-22 17:00:00 13.7 8 Noroeste 21 Oeste 0 -- -- 43
2021-02-22 16:00:00 14.1 10 Noroeste 30 Noroeste 0 -- -- 41
2021-02-22 15:00:00 14.7 15 Noroeste 33 Oeste 0 -- -- 41
2021-02-22 14:00:00 14.2 13 Noroeste 36 Oeste 0 -- -- 42
2021-02-22 13:00:00 13.5 22 Oeste 35 Oeste 0 -- -- 42
2021-02-22 12:00:00 12.9 17 Oeste 33 Oeste 0 -- -- 43
2021-02-22 11:00:00 12.1 18 Oeste 38 Oeste 0 -- -- 43
2021-02-22 10:00:00 12.1 13 Noroeste 32 Noroeste 0 -- -- 47
2021-02-22 09:00:00 9.9 9 Oeste 17 Oeste 0 -- -- 60
2021-02-22 08:00:00 8.5 8 Oeste 15 Oeste 0 -- -- 68
2021-02-22 07:00:00 7.4 0 Calma -- -- 0 -- -- 71
2021-02-22 06:00:00 7.7 0 Calma 8 Oeste 0 -- -- 70
2021-02-22 05:00:00 9.1 2 Oeste 17 Oeste 0 -- -- 68
2021-02-22 04:00:00 9.4 8 Oeste 18 Oeste 0 -- -- 69
2021-02-22 03:00:00 9.3 5 Oeste 11 Sudoeste 0 -- -- 75
2021-02-22 02:00:00 9 0 Calma 14 Oeste 0 -- -- 79
2021-02-22 01:00:00 10 2 Oeste 15 Oeste 0 -- -- 75
2021-02-22 00:00:00 11.3 5 Oeste 11 Oeste 0 -- -- 73
2021-02-21 23:00:00 11.5 5 Oeste 14 Noroeste 0 -- -- 74
2021-02-21 22:00:00 11.7 11 Noroeste 21 Noroeste 0 -- -- 67
2021-02-21 21:00:00 14.8 10 Sudeste 19 Este 0 -- -- 57
2021-02-21 20:00:00 15 9 Sudeste 18 Sudeste 0 -- -- 58
2021-02-21 19:00:00 15.4 5 Sudeste 10 Sur 0 -- -- 57
2021-02-21 18:00:00 15.9 3 Oeste 13 Oeste 0 -- -- 57
2021-02-21 17:00:00 16.3 6 Oeste 15 Oeste 0 -- -- 56
2021-02-21 16:00:00 16.3 9 Oeste 18 Oeste 0 -- -- 57
2021-02-21 15:00:00 15.7 12 Oeste 20 Oeste 0 -- -- 59
2021-02-21 14:00:00 14.8 14 Oeste 20 Oeste 0 -- -- 63
2021-02-21 13:00:00 14 10 Oeste 21 Oeste 0 -- -- 65
2021-02-21 12:00:00 13.1 14 Oeste 22 Noroeste 0 -- -- 70
2021-02-21 11:00:00 10.9 4 Noroeste 18 Oeste 0 -- -- 79
2021-02-21 10:00:00 9.9 10 Oeste 15 Oeste 0 -- -- 81
2021-02-21 09:00:00 9.4 3 Noroeste 14 Oeste 0 -- -- 86
2021-02-21 08:00:00 8.3 9 Oeste 15 Oeste 0 -- -- 89
2021-02-21 07:00:00 8.4 8 Oeste 15 Noroeste 0 -- -- 91
2021-02-21 06:00:00 8.3 8 Oeste 11 Oeste 0 -- -- 92
2021-02-21 05:00:00 8.5 7 Noroeste 15 Oeste 0 -- -- 91
2021-02-21 04:00:00 8.9 10 Oeste 15 Oeste 0 -- -- 91
2021-02-21 03:00:00 9.1 10 Oeste 15 Oeste 0 -- -- 91
2021-02-21 02:00:00 9.2 8 Oeste 13 Oeste 0 -- -- 91
2021-02-21 01:00:00 10 0 Calma 4 Sudeste 0 -- -- 88
2021-02-21 00:00:00 10.8 0 Calma 6 Este 0 -- -- 88
2021-02-20 23:00:00 11.1 0 Calma 10 Sudeste 0 -- -- 86
2021-02-20 22:00:00 11.6 7 Sudeste 21 Sudeste 0 -- -- 86
2021-02-20 21:00:00 11.3 13 Sudeste 26 Sur 0 -- -- 86
2021-02-20 20:00:00 11.9 18 Sudeste 28 Sudeste 0 -- -- 82
2021-02-20 19:00:00 12.4 19 Sudeste 31 Sudeste 0 -- -- 74
2021-02-20 18:00:00 13.6 19 Sudeste 37 Sudeste 0 -- -- 66
2021-02-20 17:00:00 15.5 25 Sudeste 36 Sudeste 0 -- -- 56
2021-02-20 16:00:00 16.3 22 Sudeste 32 Sudeste 0 -- -- 53
2021-02-20 15:00:00 15.9 19 Sudeste 33 Sudeste 0 -- -- 55
2021-02-20 14:00:00 15 20 Sudeste 30 Sudeste 0 -- -- 58
2021-02-20 13:00:00 14.3 14 Sudeste 23 Sudeste 0 -- -- 61
2021-02-20 12:00:00 12 3 Sudeste 13 Sudeste 0 -- -- 76
2021-02-20 11:00:00 8.9 6 Oeste 12 Noroeste 0 -- -- 91
2021-02-20 10:00:00 8.1 4 Este 11 Este 0 -- -- 96
2021-02-20 09:00:00 6.9 0 Calma 10 Oeste 0 -- -- 96
2021-02-20 08:00:00 6.4 8 Oeste 12 Oeste 0 -- -- 96
2021-02-20 07:00:00 6.4 0 Calma 11 Oeste 0 -- -- 96
2021-02-20 06:00:00 7 4 Oeste 8 Noroeste 0 -- -- 96
2021-02-20 05:00:00 7.7 0 Calma 15 Este 0 -- -- 96
2021-02-20 04:00:00 8.4 9 Este 14 Este 0 -- -- 96
2021-02-20 03:00:00 8 0 Calma 6 Este 0 -- -- 94
2021-02-20 02:00:00 6.8 2 Este 6 Este 0 -- -- 88
2021-02-20 01:00:00 7.8 0 Calma 4 Este 0 -- -- 91
2021-02-20 00:00:00 8.9 3 Este 8 Este 0 -- -- 90
2021-02-19 23:00:00 10.6 5 Este 13 Este 0 -- -- 86
2021-02-19 22:00:00 11.6 0 Calma 9 Sudeste 0 -- -- 76
2021-02-19 21:00:00 14.6 3 Sudeste 21 Sudeste 0 -- -- 65
2021-02-19 20:00:00 15.3 17 Sudeste 26 Sudeste 0 -- -- 67
2021-02-19 19:00:00 16.9 14 Sudeste 25 Sudeste 0 -- -- 56
2021-02-19 18:00:00 19.1 18 Sudeste 29 Sudeste 0 -- -- 44
2021-02-19 17:00:00 20.4 18 Sudeste 34 Este 0 -- -- 39
2021-02-19 16:00:00 20.5 20 Sudeste 31 Sudeste 0 -- -- 36
2021-02-19 15:00:00 20.5 17 Sudeste 30 Sudeste 0 -- -- 35
2021-02-19 14:00:00 20.9 14 Sudeste 21 Sudeste 0 -- -- 33
2021-02-19 13:00:00 19.3 7 Sudeste 14 Sudeste 0 -- -- 38
2021-02-19 12:00:00 15.8 3 Noroeste 12 Oeste 0 -- -- 44
2021-02-19 11:00:00 12.4 8 Oeste 14 Oeste 0 -- -- 50
2021-02-19 10:00:00 7.8 7 Oeste 13 Oeste 0 -- -- 68
2021-02-19 09:00:00 5.5 8 Oeste 12 Oeste 0 -- -- 77
2021-02-19 08:00:00 4.4 5 Oeste 7 Oeste 0 -- -- 83
2021-02-19 07:00:00 5 6 Oeste 13 Oeste 0 -- -- 80
2021-02-19 06:00:00 6.1 4 Oeste 12 Oeste 0 -- -- 76
2021-02-19 05:00:00 6.2 3 Oeste 16 Oeste 0 -- -- 79
2021-02-19 04:00:00 7 12 Oeste 15 Oeste 0 -- -- 77
2021-02-19 03:00:00 7.8 9 Oeste 14 Oeste 0 -- -- 79
2021-02-19 02:00:00 8 8 Oeste 13 Oeste 0 -- -- 82
2021-02-19 01:00:00 7.8 3 Noroeste 6 Oeste 0 -- -- 89
2021-02-19 00:00:00 9 5 Oeste 8 Oeste 0 -- -- 89
2021-02-18 23:00:00 9.8 0 Calma 6 Sudeste 0 -- -- 86
2021-02-18 22:00:00 11.3 0 Calma 10 Sudeste 0 -- -- 82
2021-02-18 21:00:00 13.1 5 Este 15 Sudeste 0 -- -- 76
2021-02-18 20:00:00 14.5 10 Sudeste 18 Sudeste 0 -- -- 67
2021-02-18 19:00:00 16.4 15 Sudeste 22 Sudeste 0 -- -- 52
2021-02-18 18:00:00 19.5 12 Sudeste 21 Sudeste 0 -- -- 30
2021-02-18 17:00:00 21.4 9 Sudeste 18 Sudeste 0 -- -- 29
2021-02-18 16:00:00 22.5 9 Este 17 Este 0 -- -- 29
2021-02-18 15:00:00 21.7 3 Este 10 Este 0 -- -- 30
2021-02-18 14:00:00 19.2 3 Nordeste 10 Noroeste 0 -- -- 36
2021-02-18 13:00:00 16.7 6 Oeste 13 Oeste 0 -- -- 45
2021-02-18 12:00:00 13.9 10 Oeste 16 Oeste 0 -- -- 53
2021-02-18 11:00:00 10.2 12 Oeste 22 Oeste 0 -- -- 65
2021-02-18 10:00:00 6.5 12 Oeste 19 Oeste 0 -- -- 80
2021-02-18 09:00:00 3.8 11 Oeste 17 Oeste 0 -- -- 94
2021-02-18 08:00:00 3.2 10 Oeste 16 Oeste 0 -- -- 96
2021-02-18 07:00:00 3.9 12 Oeste 21 Oeste 0 -- -- 96
2021-02-18 06:00:00 5 9 Oeste 13 Noroeste 0 -- -- 96
2021-02-18 05:00:00 6.1 5 Oeste 10 Oeste 0 -- -- 96
2021-02-18 04:00:00 7.5 0 Calma -- -- 0 -- -- 94
2021-02-18 03:00:00 7.4 0 Calma 6 Este 0 -- -- 93
2021-02-18 02:00:00 7.8 0 Calma 9 Sudeste 0 -- -- 94
2021-02-18 01:00:00 6.7 0 Calma 7 Sudeste 0 -- -- 86
2021-02-18 00:00:00 7.1 4 Sudeste 5 Sudeste 0 -- -- 86
2021-02-17 23:00:00 9.2 0 Calma 6 Este 0 -- -- 84
2021-02-17 22:00:00 10.2 0 Calma 7 Este 0 -- -- 81
2021-02-17 21:00:00 12.1 0 Calma 15 Sudeste 0 -- -- 73
2021-02-17 20:00:00 14.1 11 Sudeste 19 Sudeste 0 -- -- 62
2021-02-17 19:00:00 16 12 Sudeste 27 Sudeste 0 -- -- 51
2021-02-17 18:00:00 18.2 17 Sudeste 28 Sudeste 0 -- -- 44
2021-02-17 17:00:00 20 18 Sudeste 32 Sudeste 0 -- -- 39
2021-02-17 16:00:00 21.1 21 Sudeste 31 Sudeste 0 -- -- 34
2021-02-17 15:00:00 21.7 17 Sudeste 27 Sudeste 0 -- -- 34
2021-02-17 14:00:00 21.7 15 Sudeste 25 Sudeste 0 -- -- 34
2021-02-17 13:00:00 19.1 2 Norte 14 Oeste 0 -- -- 40
2021-02-17 12:00:00 15.5 10 Oeste 19 Oeste 0 -- -- 47
2021-02-17 11:00:00 12.8 14 Oeste 22 Oeste 0 -- -- 53
2021-02-17 10:00:00 8.5 14 Oeste 20 Oeste 0 -- -- 74
2021-02-17 09:00:00 5.4 14 Oeste 24 Oeste 0 -- -- 85
2021-02-17 08:00:00 4.9 17 Oeste 23 Oeste 0 -- -- 87
2021-02-17 07:00:00 5.1 16 Oeste 21 Oeste 0 -- -- 87
2021-02-17 06:00:00 5 3 Noroeste 16 Oeste 0 -- -- 87
2021-02-17 05:00:00 6 12 Oeste 15 Oeste 0 -- -- 85
2021-02-17 04:00:00 6.3 12 Oeste 16 Oeste 0 -- -- 83
2021-02-17 03:00:00 6.8 13 Oeste 16 Oeste 0 -- -- 82
2021-02-17 02:00:00 7.7 12 Oeste 16 Oeste 0 -- -- 79
2021-02-17 01:00:00 7.7 9 Oeste 14 Oeste 0 -- -- 79
2021-02-17 00:00:00 8.3 10 Oeste 14 Oeste 0 -- -- 75
2021-02-16 23:00:00 8.8 5 Noroeste 9 Oeste 0 -- -- 74
2021-02-16 22:00:00 8.5 4 Oeste 5 Oeste 0 -- -- 70
2021-02-16 21:00:00 10.3 3 Este 5 Sudeste 0 -- -- 65
2021-02-16 20:00:00 12 5 Sudeste 9 Sudeste 0 -- -- 57
2021-02-16 19:00:00 14.9 6 Sudeste 13 Sudeste 0 -- -- 48
2021-02-16 18:00:00 17.4 10 Sudeste 14 Sudeste 0 -- -- 44
2021-02-16 17:00:00 19.1 0 Calma 10 Sudoeste 0 -- -- 39
2021-02-16 16:00:00 18.2 3 Oeste 9 Oeste 0 -- -- 42
2021-02-16 15:00:00 16.9 4 Oeste 12 Oeste 0 -- -- 46
2021-02-16 14:00:00 15.2 5 Oeste 13 Oeste 0 -- -- 50
2021-02-16 13:00:00 13.5 4 Noroeste 11 Noroeste 0 -- -- 53
2021-02-16 12:00:00 11.6 0 Calma 14 Oeste 0 -- -- 66
2021-02-16 11:00:00 9.1 11 Oeste 15 Oeste 0 -- -- 75
2021-02-16 10:00:00 6.6 6 Oeste 11 Oeste 0 -- -- 85
2021-02-16 09:00:00 5.3 6 Oeste 10 Oeste 0 -- -- 87
2021-02-16 08:00:00 5.5 6 Oeste 10 Oeste 0 -- -- 88
2021-02-16 07:00:00 5.6 6 Oeste 10 Oeste 0 -- -- 92
2021-02-16 06:00:00 5.8 0 Calma -- -- 0 -- -- 93
2021-02-16 05:00:00 5 0 Calma -- -- 0 -- -- 93
2021-02-16 04:00:00 5 0 Calma 5 Este 0 -- -- 91
2021-02-16 03:00:00 5.5 0 Calma 6 Este 0 -- -- 89
2021-02-16 02:00:00 6.3 3 Este 9 Este 0 -- -- 87
2021-02-16 01:00:00 7.7 5 Este 15 Sudeste 0 -- -- 86
2021-02-16 00:00:00 9.1 11 Sudeste 19 Sudeste 0 -- -- 85
2021-02-15 23:00:00 9.4 13 Sudeste 22 Sudeste 0 -- -- 84
2021-02-15 22:00:00 9.6 13 Sudeste 26 Sudeste 0 -- -- 82
2021-02-15 21:00:00 10.1 14 Sudeste 24 Sudeste 0 -- -- 78
2021-02-15 20:00:00 11 18 Sudeste 27 Sudeste 0 -- -- 70
2021-02-15 19:00:00 12.4 18 Sudeste 28 Sudeste 0 -- -- 59
2021-02-15 18:00:00 14.2 16 Sudeste 26 Sudeste 0 -- -- 51
2021-02-15 17:00:00 14.8 15 Sudeste 26 Sudeste 0 -- -- 50
2021-02-15 16:00:00 14.9 13 Sudeste 26 Sudeste 0 -- -- 50
2021-02-15 15:00:00 14.7 16 Sudeste 25 Sudeste 0 -- -- 52
2021-02-15 14:00:00 14.8 14 Sudeste 28 Sudeste 0 -- -- 52
2021-02-15 13:00:00 15.4 12 Sudeste 23 Sudeste 0 -- -- 52
2021-02-15 12:00:00 14.3 12 Sudeste 20 Sudeste 0 -- -- 58
2021-02-15 11:00:00 12.4 13 Sudeste 21 Este 0 -- -- 75
2021-02-15 10:00:00 12.5 9 Este 15 Sudeste 0 -- -- 81
2021-02-15 09:00:00 11.1 8 Sudeste 13 Este 0 -- -- 91
2021-02-15 08:00:00 11.1 4 Sudeste 10 Sudeste 0 -- -- 90
2021-02-15 07:00:00 11 7 Sudeste 13 Sudeste 0 -- -- 90
2021-02-15 06:00:00 11 7 Sudeste 13 Sudeste 0 -- -- 90
2021-02-15 05:00:00 11.1 8 Sudeste 12 Este 0 -- -- 92
2021-02-15 04:00:00 11.1 7 Sudeste 11 Sudeste 0 -- -- 93
2021-02-15 03:00:00 11.2 6 Sudeste 14 Sudeste 0 -- -- 93
2021-02-15 02:00:00 11.2 10 Sudeste 15 Sudeste 0 -- -- 93
2021-02-15 01:00:00 11.4 9 Sudeste 23 Sudeste 0 -- -- 95
2021-02-15 00:00:00 11.6 6 Este 22 Sudeste 0 -- -- 93
2021-02-14 23:00:00 11.5 9 Sudeste 17 Sudeste 0 -- -- 92
2021-02-14 22:00:00 11.2 12 Sudeste 23 Sudeste 0 -- -- 92
2021-02-14 21:00:00 11.6 14 Sudeste 26 Sudeste 0 -- -- 88
2021-02-14 20:00:00 12.2 17 Sudeste 33 Sudeste 0 -- -- 85
2021-02-14 19:00:00 13.2 21 Sudeste 33 Sudeste 0 -- -- 75
2021-02-14 18:00:00 14.8 20 Sudeste 34 Este 0 -- -- 58
2021-02-14 17:00:00 16.4 21 Sudeste 35 Sudeste 0 -- -- 55
2021-02-14 16:00:00 17.1 21 Sudeste 32 Sudeste 0 -- -- 53
2021-02-14 15:00:00 17.9 18 Sudeste 30 Sudeste 0 -- -- 51
2021-02-14 14:00:00 18.2 18 Sudeste 31 Sudeste 0 -- -- 50
2021-02-14 13:00:00 18 10 Este 23 Sudeste 0 -- -- 53
2021-02-14 12:00:00 16.2 0 Calma 13 Oeste 0 -- -- 55
2021-02-14 11:00:00 12.7 9 Oeste 13 Oeste 0 -- -- 62
2021-02-14 10:00:00 9.4 10 Oeste 14 Oeste 0 -- -- 70
2021-02-14 09:00:00 7.7 6 Oeste 13 Oeste 0 -- -- 73
2021-02-14 08:00:00 7.1 3 Oeste 14 Oeste 0 -- -- 74
2021-02-14 07:00:00 7.6 8 Oeste 14 Noroeste 0 -- -- 73
2021-02-14 06:00:00 9 7 Oeste 16 Noroeste 0 -- -- 67
2021-02-14 05:00:00 9.6 8 Noroeste 19 Oeste 0 -- -- 65
2021-02-14 04:00:00 9.5 10 Oeste 14 Oeste 0 -- -- 64
2021-02-14 03:00:00 10.3 8 Oeste 18 Oeste 0 -- -- 62
2021-02-14 02:00:00 11.3 12 Oeste 19 Oeste 0 -- -- 58
2021-02-14 01:00:00 10.8 6 Sudoeste 16 Oeste 0 -- -- 59
2021-02-14 00:00:00 12.1 6 Oeste 17 Oeste 0 -- -- 54
2021-02-13 23:00:00 12.8 10 Oeste 16 Oeste 0 -- -- 53
2021-02-13 22:00:00 13.7 5 Oeste 10 Oeste 0 -- -- 47
2021-02-13 21:00:00 14.7 4 Oeste 8 Oeste 0 -- -- 43
2021-02-13 20:00:00 14.8 3 Norte 11 Nordeste 0 -- -- 42
2021-02-13 19:00:00 17.2 3 Nordeste 12 Norte 0 -- -- 37
2021-02-13 18:00:00 20.3 8 Norte 20 Norte 0 -- -- 35
2021-02-13 17:00:00 21.3 6 Norte 17 Norte 0 -- -- 35
2021-02-13 16:00:00 20.7 10 Norte 20 Norte 0 -- -- 36
2021-02-13 15:00:00 20.9 5 Noroeste 26 Norte 0 -- -- 38
2021-02-13 14:00:00 20.4 8 Noroeste 24 Noroeste 0 -- -- 40
2021-02-13 13:00:00 18 9 Noroeste 29 Oeste 0 -- -- 47
2021-02-13 08:00:00 12.6 9 Noroeste 23 Noroeste 0 -- -- 61
2021-02-13 07:00:00 13 13 Noroeste 26 Oeste 0 -- -- 59
2021-02-13 06:00:00 12.7 10 Noroeste 26 Oeste 0 -- -- 60
2021-02-13 05:00:00 12.5 18 Noroeste 33 Oeste 0 -- -- 63
2021-02-13 04:00:00 11.1 12 Noroeste 21 Oeste 0 -- -- 68
2021-02-13 03:00:00 11.4 9 Noroeste 20 Oeste 0 -- -- 67
2021-02-13 02:00:00 11.2 8 Oeste 19 Oeste 0 -- -- 67
2021-02-13 01:00:00 11.9 6 Noroeste 18 Noroeste 0 -- -- 63
2021-02-13 00:00:00 12.2 5 Oeste 12 Noroeste 0 -- -- 61
2021-02-12 23:00:00 12.8 7 Noroeste 18 Noroeste 0 -- -- 57
2021-02-12 22:00:00 14.6 5 Noroeste 15 Norte 0 -- -- 52
2021-02-12 21:00:00 15.7 9 Noroeste 36 Noroeste 0 -- -- 47
2021-02-12 20:00:00 16.9 15 Noroeste 39 Noroeste 0 -- -- 43
2021-02-12 19:00:00 17.5 15 Noroeste 30 Norte 0 -- -- 41
2021-02-12 18:00:00 19.3 14 Noroeste 36 Oeste 0 -- -- 37
2021-02-12 17:00:00 20.2 20 Oeste 41 Oeste 0 -- -- 34
2021-02-12 16:00:00 20.1 15 Noroeste 39 Oeste 0 -- -- 34
2021-02-12 15:00:00 21.5 20 Noroeste 45 Oeste 0 -- -- 30
2021-02-12 14:00:00 21.7 21 Noroeste 52 Noroeste 0 -- -- 38
2021-02-12 13:00:00 21 21 Noroeste 48 Noroeste 0 -- -- 44
2021-02-12 12:00:00 20 17 Noroeste 40 Noroeste 0 -- -- 49
2021-02-12 11:00:00 17 5 Noroeste 13 Noroeste 0 -- -- 68
2021-02-12 10:00:00 13.6 4 Oeste 9 Oeste 0 -- -- 80
2021-02-12 09:00:00 12 5 Oeste 9 Oeste 0 -- -- 85
2021-02-12 08:00:00 12 6 Oeste 10 Oeste 0 -- -- 85
2021-02-12 07:00:00 12.5 8 Oeste 15 Oeste 0 -- -- 82
2021-02-12 06:00:00 12.3 6 Oeste 16 Oeste 0 -- -- 84
2021-02-12 05:00:00 12.5 7 Oeste 17 Oeste 0 -- -- 82
2021-02-12 04:00:00 13.1 9 Oeste 15 Oeste 0 -- -- 80
2021-02-12 03:00:00 13.4 10 Oeste 14 Oeste 0 -- -- 79
2021-02-12 02:00:00 14.1 10 Oeste 13 Oeste 0 -- -- 74
2021-02-12 01:00:00 14.7 8 Oeste 13 Oeste 0 -- -- 72
2021-02-12 00:00:00 15.1 8 Oeste 14 Oeste 0 -- -- 70
2021-02-11 23:00:00 15.6 6 Oeste 15 Oeste 0 -- -- 68
2021-02-11 22:00:00 16.5 7 Oeste 14 Oeste 0 -- -- 64
2021-02-11 21:00:00 16.9 0 Calma 10 Norte 0 -- -- 59
2021-02-11 20:00:00 18 0 Calma 11 Sudeste 0 -- -- 53
2021-02-11 19:00:00 18.9 5 Sudeste 10 Sudeste 0 -- -- 50
2021-02-11 18:00:00 21.5 6 Sudeste 14 Sur 0 -- -- 45
2021-02-11 17:00:00 23 5 Sur 12 Sur 0 -- -- 44
2021-02-11 16:00:00 23.1 8 Sudeste 13 Sudeste 0 -- -- 44
2021-02-11 15:00:00 22.7 4 Sur 11 Sudeste 0 -- -- 45
2021-02-11 14:00:00 21.7 3 Oeste 10 Oeste 0 -- -- 47
2021-02-11 13:00:00 20.9 5 Oeste 11 Oeste 0 -- -- 52
2021-02-11 12:00:00 19.5 5 Oeste 13 Noroeste 0 -- -- 55
2021-02-11 11:00:00 15.3 4 Oeste 10 Noroeste 0 -- -- 63
2021-02-11 10:00:00 10.5 8 Oeste 12 Oeste 0 -- -- 72
2021-02-11 09:00:00 8.5 2 Noroeste 11 Oeste 0 -- -- 76
2021-02-11 08:00:00 7.7 9 Oeste 11 Oeste 0 -- -- 76
2021-02-11 07:00:00 8 4 Oeste 10 Oeste 0 -- -- 74
2021-02-11 06:00:00 8.3 7 Oeste 12 Oeste 0 -- -- 71
2021-02-11 05:00:00 9.9 5 Oeste 12 Oeste 0 -- -- 67
2021-02-11 04:00:00 9.8 7 Oeste 12 Oeste 0 -- -- 65
2021-02-11 03:00:00 11.4 6 Oeste 12 Oeste 0 -- -- 61
2021-02-11 02:00:00 11.4 8 Oeste 13 Oeste 0 -- -- 59
2021-02-11 01:00:00 12.1 8 Oeste 19 Oeste 0 -- -- 56
2021-02-11 00:00:00 11 13 Oeste 21 Oeste 0 -- -- 57
2021-02-10 23:00:00 11.1 9 Oeste 15 Oeste 0 -- -- 54
2021-02-10 22:00:00 12.6 9 Oeste 12 Oeste 0 -- -- 51
2021-02-10 21:00:00 12.8 4 Sudoeste 14 Sudoeste 0 -- -- 47
2021-02-10 20:00:00 15 8 Oeste 17 Oeste 0 -- -- 43
2021-02-10 19:00:00 16.7 6 Noroeste 25 Oeste 0 -- -- 37
2021-02-10 18:00:00 18.9 16 Oeste 36 Oeste 0 -- -- 35
2021-02-10 17:00:00 20.1 26 Oeste 44 Noroeste 0 -- -- 32
2021-02-10 16:00:00 20.7 17 Noroeste 40 Noroeste 0 -- -- 32
2021-02-10 15:00:00 20.8 15 Noroeste 41 Oeste 0 -- -- 36
2021-02-10 14:00:00 19.6 24 Oeste 40 Oeste 0 -- -- 46
2021-02-10 13:00:00 18.5 21 Oeste 37 Oeste 0 -- -- 50
2021-02-10 12:00:00 16.8 16 Oeste 32 Noroeste 0 -- -- 56
2021-02-10 11:00:00 16.1 18 Oeste 29 Oeste 0.1 -- -- 59
2021-02-10 10:00:00 14.5 12 Oeste 28 Oeste 0 -- -- 64
2021-02-10 09:00:00 12.9 9 Oeste 20 Oeste 0 -- -- 61
2021-02-10 08:00:00 10.1 3 Sudoeste 17 Sur 0 -- -- 63
2021-02-10 07:00:00 9.7 0 Calma 10 Oeste 0 -- -- 63
2021-02-10 06:00:00 11.4 7 Oeste 22 Oeste 0 -- -- 57
2021-02-10 05:00:00 10.5 7 Noroeste 15 Noroeste 0 -- -- 68
2021-02-10 04:00:00 9.7 6 Oeste 26 Sudoeste 0 -- -- 82
2021-02-10 03:00:00 9.5 6 Oeste 12 Oeste 0 -- -- 90
2021-02-10 02:00:00 9.7 0 Calma 5 Nordeste 0 -- -- 87
2021-02-10 01:00:00 10.9 0 Calma 5 Este 0.1 -- -- 86
2021-02-10 00:00:00 12 5 Oeste 25 Oeste 0.5 -- -- 80
2021-02-09 23:00:00 16.4 13 Oeste 29 Oeste 0 -- -- 53
2021-02-09 22:00:00 16 13 Sudoeste 22 Sudoeste 0 -- -- 54
2021-02-09 21:00:00 16.6 14 Sudoeste 24 Sudoeste 0 -- -- 52
2021-02-09 20:00:00 17 15 Sudoeste 26 Sudoeste 0 -- -- 51
2021-02-09 19:00:00 14.8 3 Oeste 10 Oeste 0 -- -- 52
2021-02-09 18:00:00 15.3 6 Sudeste 18 Este 0 -- -- 51
2021-02-09 17:00:00 14.5 10 Sudeste 21 Sudeste 0 -- -- 51
2021-02-09 16:00:00 14.5 14 Sudeste 21 Sudeste 0 -- -- 51
2021-02-09 15:00:00 15.3 10 Sudeste 18 Sudeste 0 -- -- 52
2021-02-09 14:00:00 14.9 4 Norte 9 Este 0 -- -- 55
2021-02-09 13:00:00 14.7 5 Sudeste 22 Sur 0 -- -- 54
2021-02-09 12:00:00 12.9 7 Sur 16 Sur 0 -- -- 62
2021-02-09 11:00:00 9.3 0 Calma 7 Oeste 0 -- -- 71
2021-02-09 10:00:00 7.7 0 Calma 7 Este 0 -- -- 75
2021-02-09 09:00:00 6 0 Calma 13 Oeste 0 -- -- 78
2021-02-09 08:00:00 6.5 6 Oeste 10 Oeste 0 -- -- 76
2021-02-09 07:00:00 6.6 6 Oeste 9 Oeste 0 -- -- 75
2021-02-09 06:00:00 6.7 5 Oeste 8 Oeste 0 -- -- 74
2021-02-09 05:00:00 6.6 2 Este 11 Sudeste 0 -- -- 73
2021-02-09 04:00:00 7.4 0 Calma 6 Este 0 -- -- 68
2021-02-09 03:00:00 8.3 3 Sur 8 Sudeste 0 -- -- 65
2021-02-09 02:00:00 6.8 0 Calma 8 Oeste 0 -- -- 64
2021-02-09 01:00:00 11.2 4 Oeste 17 Sudoeste 0 -- -- 54
2021-02-09 00:00:00 12.1 12 Oeste 26 Oeste 0 -- -- 54
2021-02-08 23:00:00 11.8 9 Oeste 18 Oeste 0 -- -- 58
2021-02-08 22:00:00 12.2 11 Oeste 37 Oeste 0 -- -- 56
2021-02-08 21:00:00 12.9 14 Noroeste 30 Noroeste 0 -- -- 49
2021-02-08 20:00:00 13.3 15 Noroeste 30 Oeste 0 -- -- 46
2021-02-08 19:00:00 13.8 12 Noroeste 33 Oeste 0 -- -- 45
2021-02-08 18:00:00 15.1 23 Oeste 49 Oeste 0 -- -- 42
2021-02-08 17:00:00 16.5 23 Oeste 43 Oeste 0 -- -- 40
2021-02-08 16:00:00 17.3 19 Noroeste 44 Oeste 0 -- -- 37
2021-02-08 15:00:00 17.3 18 Noroeste 36 Oeste 0 -- -- 37
2021-02-08 14:00:00 17.1 23 Oeste 44 Oeste 0 -- -- 37
2021-02-08 13:00:00 16.4 17 Noroeste 41 Oeste 0 -- -- 40
2021-02-08 12:00:00 16.5 24 Oeste 40 Noroeste 0 -- -- 42
2021-02-08 11:00:00 16.1 11 Sudoeste 21 Sudoeste 0 -- -- 53
2021-02-08 10:00:00 14.9 13 Oeste 36 Sudoeste 0 -- -- 56
2021-02-08 09:00:00 10.2 8 Este 13 Este 0 -- -- 68
2021-02-08 08:00:00 9 5 Este 11 Este 0 -- -- 68
2021-02-08 07:00:00 8.5 3 Este 9 Sur 0 -- -- 68
2021-02-08 06:00:00 8.3 2 Sudeste 7 Este 0 -- -- 68
2021-02-08 05:00:00 8.5 0 Calma 6 Este 0 -- -- 66
2021-02-08 04:00:00 8.2 0 Calma 7 Sudoeste 0 -- -- 65
2021-02-08 03:00:00 10.1 3 Sudoeste 19 Oeste 0 -- -- 57
2021-02-08 02:00:00 11.2 10 Oeste 30 Noroeste 0 -- -- 53
2021-02-08 01:00:00 11.9 16 Noroeste 38 Oeste 0 -- -- 51
2021-02-08 00:00:00 12.7 15 Noroeste 35 Oeste 0 -- -- 48
2021-02-07 23:00:00 13 14 Noroeste 30 Noroeste 0 -- -- 48
2021-02-07 22:00:00 11.6 6 Noroeste 18 Noroeste 0 -- -- 48
2021-02-07 21:00:00 11.9 7 Noroeste 19 Oeste 0 -- -- 47
2021-02-07 20:00:00 12.7 9 Noroeste 32 Noroeste 0 -- -- 45
2021-02-07 19:00:00 13.2 18 Noroeste 40 Oeste 0 -- -- 43
2021-02-07 18:00:00 14.4 20 Noroeste 41 Oeste 0 -- -- 42
2021-02-07 17:00:00 16.6 25 Oeste 43 Oeste 0 -- -- 41
2021-02-07 16:00:00 16.2 26 Noroeste 43 Oeste 0 -- -- 41
2021-02-07 15:00:00 16.8 10 Noroeste 27 Norte 0 -- -- 47
2021-02-07 14:00:00 15 8 Noroeste 27 Norte 0 -- -- 51
2021-02-07 13:00:00 14.8 11 Noroeste 30 Oeste 0 -- -- 53
2021-02-07 12:00:00 15.2 18 Oeste 29 Oeste 0 -- -- 50
2021-02-07 11:00:00 14 12 Oeste 19 Oeste 0 -- -- 57
2021-02-07 10:00:00 9.1 8 Oeste 13 Sudoeste 0 -- -- 73
2021-02-07 09:00:00 6.6 3 Oeste 8 Oeste 0 -- -- 82
2021-02-07 08:00:00 4.7 2 Oeste 8 Oeste 0 -- -- 87
2021-02-07 07:00:00 4.7 4 Oeste 13 Oeste 0 -- -- 87
2021-02-07 06:00:00 5.2 6 Oeste 10 Sudoeste 0 -- -- 86
2021-02-07 05:00:00 6.1 4 Oeste 8 Oeste 0 -- -- 82
2021-02-07 04:00:00 6.5 7 Oeste 8 Oeste 0 -- -- 82
2021-02-07 03:00:00 6 0 Calma 6 Oeste 0 -- -- 79
2021-02-07 02:00:00 7.3 3 Oeste 8 Oeste 0 -- -- 74
2021-02-07 01:00:00 9.4 5 Oeste 18 Oeste 0 -- -- 67
2021-02-07 00:00:00 10.6 8 Oeste 13 Oeste 0 -- -- 63
2021-02-06 23:00:00 9.6 0 Calma 9 Oeste 0 -- -- 62
2021-02-06 22:00:00 10.8 2 Noroeste 9 Oeste 0 -- -- 57
2021-02-06 21:00:00 11.5 3 Oeste 15 Noroeste 0 -- -- 51
2021-02-06 20:00:00 13.6 6 Noroeste 15 Noroeste 0 -- -- 45
2021-02-06 19:00:00 15.4 6 Noroeste 17 Norte 0 -- -- 39
2021-02-06 18:00:00 16.5 5 Noroeste 22 Oeste 0 -- -- 36
2021-02-06 17:00:00 17.8 9 Noroeste 24 Noroeste 0 -- -- 37
2021-02-06 16:00:00 18.2 9 Noroeste 23 Oeste 0 -- -- 39
2021-02-06 15:00:00 18.9 10 Noroeste 22 Oeste 0 -- -- 40
2021-02-06 14:00:00 18.7 9 Oeste 19 Oeste 0 -- -- 39
2021-02-06 13:00:00 17.9 2 Norte 11 Este 0 -- -- 49
2021-02-06 12:00:00 15.4 0 Calma 9 Noroeste 0 -- -- 62
2021-02-06 11:00:00 11.9 4 Oeste 8 Sudoeste 0 -- -- 75
2021-02-06 10:00:00 9.6 4 Oeste 9 Oeste 0 -- -- 87
2021-02-06 09:00:00 7.7 6 Oeste 10 Oeste 0 -- -- 93
2021-02-06 08:00:00 7 6 Oeste 10 Oeste 0 -- -- 93
2021-02-06 07:00:00 6.8 2 Este 6 Este 0 -- -- 92
2021-02-06 06:00:00 8.4 2 Noroeste 12 Oeste 0 -- -- 90
2021-02-06 05:00:00 8.9 10 Oeste 15 Oeste 0 -- -- 88
2021-02-06 04:00:00 9.5 7 Noroeste 19 Noroeste 0 -- -- 85
2021-02-06 03:00:00 11.2 5 Noroeste 15 Norte 0 -- -- 75
2021-02-06 02:00:00 11.1 0 Calma 13 Noroeste 0 -- -- 76
2021-02-06 01:00:00 11.8 3 Noroeste 18 Noroeste 0 -- -- 73
2021-02-06 00:00:00 12.4 12 Oeste 21 Oeste 0 -- -- 72
2021-02-05 23:00:00 13.2 8 Oeste 18 Norte 0 -- -- 67
2021-02-05 22:00:00 12.9 4 Noroeste 27 Oeste 0 -- -- 69
2021-02-05 21:00:00 12.7 12 Oeste 18 Oeste 0 -- -- 70
2021-02-05 20:00:00 12.7 0 Calma 14 Sudeste 0 -- -- 65
2021-02-05 19:00:00 14.9 10 Sudeste 27 Sudeste 0 -- -- 58
2021-02-05 18:00:00 16.2 15 Sudeste 28 Sudeste 0 -- -- 52
2021-02-05 17:00:00 17 19 Sudeste 26 Sudeste 0 -- -- 51
2021-02-05 16:00:00 17.4 17 Sudeste 27 Sudeste 0 -- -- 51
2021-02-05 15:00:00 17 4 Este 10 Sur 0 -- -- 57
2021-02-05 14:00:00 15.3 0 Calma 10 Sudoeste 0 -- -- 64
2021-02-05 13:00:00 13.2 8 Oeste 15 Oeste 0 -- -- 72
2021-02-05 12:00:00 12 11 Oeste 16 Oeste 0 -- -- 80
2021-02-05 11:00:00 10.6 12 Oeste 18 Oeste 0 -- -- 85
2021-02-05 10:00:00 10.1 7 Oeste 12 Oeste 0 -- -- 90
2021-02-05 09:00:00 9.4 2 Oeste 8 Oeste 0 -- -- 93
2021-02-05 08:00:00 9.3 5 Oeste 9 Noroeste 0 -- -- 94
2021-02-05 07:00:00 9.3 0 Calma 4 Noroeste 0 -- -- 94
2021-02-05 06:00:00 9 0 Calma 8 Oeste 0 -- -- 94
2021-02-05 05:00:00 9.2 6 Oeste 10 Noroeste 0 -- -- 94
2021-02-05 04:00:00 9.8 8 Noroeste 12 Oeste 0 -- -- 92
2021-02-05 03:00:00 10.9 7 Sudeste 18 Sudeste 0 -- -- 92
2021-02-05 02:00:00 10.9 14 Sudeste 22 Sudeste 0 -- -- 96
2021-02-05 01:00:00 9 2 Este 10 Oeste 0 -- -- 92
2021-02-05 00:00:00 9.8 6 Oeste 10 Oeste 0 -- -- 93
2021-02-04 23:00:00 8.7 0 Calma -- -- 0 -- -- 94
2021-02-04 22:00:00 9.8 0 Calma 5 Este 0 -- -- 92
2021-02-04 21:00:00 11.5 0 Calma 3 Nordeste 0 -- -- 90
2021-02-04 20:00:00 12.6 0 Calma 10 Sudeste 0 -- -- 83
2021-02-04 19:00:00 14.4 7 Sudeste 24 Sudeste 0 -- -- 75
2021-02-04 18:00:00 15.1 12 Sudeste 28 Sudeste 0 -- -- 73
2021-02-04 17:00:00 16.6 19 Sudeste 33 Sudeste 0 -- -- 64
2021-02-04 16:00:00 17.9 21 Sudeste 32 Sudeste 0 -- -- 60
2021-02-04 15:00:00 18.3 19 Sudeste 32 Este 0 -- -- 55
2021-02-04 14:00:00 17.9 19 Sudeste 33 Sudeste 0 -- -- 53
2021-02-04 13:00:00 18.3 12 Sudeste 21 Sudeste 0 -- -- 53
2021-02-04 12:00:00 14.8 8 Oeste 13 Noroeste 0 -- -- 64
2021-02-04 11:00:00 12.3 8 Oeste 11 Oeste 0 -- -- 75
2021-02-04 10:00:00 9.5 5 Oeste 11 Oeste 0 -- -- 85
2021-02-04 09:00:00 8 0 Calma 12 Oeste 0 -- -- 90
2021-02-04 08:00:00 8 8 Oeste 17 Oeste 0 -- -- 89
2021-02-04 07:00:00 7.3 8 Oeste 12 Oeste 0 -- -- 91
2021-02-04 06:00:00 8.3 6 Oeste 11 Oeste 0 -- -- 87
2021-02-04 05:00:00 8.8 2 Oeste 11 Oeste 0 -- -- 84
2021-02-04 04:00:00 9.4 10 Oeste 17 Oeste 0 -- -- 81
2021-02-04 03:00:00 9.7 8 Oeste 13 Oeste 0 -- -- 81
2021-02-04 02:00:00 10.1 6 Oeste 13 Oeste 0 -- -- 79
2021-02-04 01:00:00 10.6 10 Oeste 17 Oeste 0 -- -- 78
2021-02-04 00:00:00 10.8 9 Oeste 14 Oeste 0 -- -- 78
2021-02-03 23:00:00 11.5 7 Oeste 10 Oeste 0 -- -- 75
2021-02-03 22:00:00 11.7 0 Calma 7 Oeste 0 -- -- 72
2021-02-03 21:00:00 13.3 4 Oeste 7 Oeste 0 -- -- 64
2021-02-03 20:00:00 14.7 6 Oeste 7 Oeste 0 -- -- 59
2021-02-03 19:00:00 14.9 0 Calma 8 Oeste 0 -- -- 56
2021-02-03 18:00:00 17.2 4 Oeste 9 Oeste 0 -- -- 51
2021-02-03 17:00:00 18.9 5 Oeste 15 Oeste 0 -- -- 47
2021-02-03 16:00:00 19.5 11 Oeste 18 Oeste 0 -- -- 46
2021-02-03 15:00:00 18.2 12 Oeste 18 Oeste 0 -- -- 50
2021-02-03 14:00:00 17.9 11 Oeste 20 Oeste 0 -- -- 52
2021-02-03 13:00:00 16.4 14 Oeste 23 Oeste 0 -- -- 57
2021-02-03 12:00:00 15.2 14 Oeste 23 Oeste 0 -- -- 62
2021-02-03 11:00:00 14 14 Oeste 20 Oeste 0 -- -- 67
2021-02-03 10:00:00 11.6 12 Noroeste 21 Noroeste 0 -- -- 76
2021-02-03 09:00:00 8 9 Noroeste 19 Oeste 0 -- -- 87
2021-02-03 08:00:00 7.5 13 Oeste 17 Noroeste 0 -- -- 88
2021-02-03 07:00:00 8.8 6 Noroeste 12 Oeste 0 -- -- 86
2021-02-03 06:00:00 8 8 Oeste 19 Oeste 0 -- -- 89
2021-02-03 05:00:00 8.5 10 Oeste 17 Noroeste 0 -- -- 88
2021-02-03 04:00:00 9.8 11 Oeste 15 Noroeste 0 -- -- 86
2021-02-03 03:00:00 9.5 12 Oeste 20 Oeste 0 -- -- 86
2021-02-03 02:00:00 9.8 14 Oeste 18 Noroeste 0 -- -- 85
2021-02-03 01:00:00 10.8 10 Oeste 16 Oeste 0 -- -- 80
2021-02-03 00:00:00 11.5 10 Oeste 15 Oeste 0 -- -- 78